sensor_id;sensor_type;location;lat;lon;timestamp;P1;durP1;ratioP1;P2;durP2;ratioP2
15258;SDS011;34462;51.368;12.364;2022-07-25T00:01:19;3.00;;;2.75;;
15258;SDS011;34462;51.368;12.364;2022-07-25T00:03:48;3.78;;;2.88;;
15258;SDS011;34462;51.368;12.364;2022-07-25T00:06:16;4.30;;;2.70;;
15258;SDS011;34462;51.368;12.364;2022-07-25T00:08:45;4.05;;;2.95;;
15258;SDS011;34462;51.368;12.364;2022-07-25T00:11:13;4.28;;;2.70;;
15258;SDS011;34462;51.368;12.364;2022-07-25T00:13:41;3.40;;;3.10;;
15258;SDS011;34462;51.368;12.364;2022-07-25T00:16:10;3.05;;;2.72;;
15258;SDS011;34462;51.368;12.364;2022-07-25T00:18:38;5.75;;;2.70;;
15258;SDS011;34462;51.368;12.364;2022-07-25T00:21:07;3.50;;;2.95;;
15258;SDS011;34462;51.368;12.364;2022-07-25T00:23:35;2.97;;;2.65;;
15258;SDS011;34462;51.368;12.364;2022-07-25T00:26:03;5.50;;;2.92;;
15258;SDS011;34462;51.368;12.364;2022-07-25T00:28:32;4.00;;;3.05;;
15258;SDS011;34462;51.368;12.364;2022-07-25T00:31:00;3.60;;;3.05;;
15258;SDS011;34462;51.368;12.364;2022-07-25T00:33:29;3.58;;;2.67;;
15258;SDS011;34462;51.368;12.364;2022-07-25T00:35:58;3.40;;;3.10;;
15258;SDS011;34462;51.368;12.364;2022-07-25T00:38:26;3.20;;;3.00;;
15258;SDS011;34462;51.368;12.364;2022-07-25T00:40:54;3.28;;;2.95;;
15258;SDS011;34462;51.368;12.364;2022-07-25T00:43:22;3.28;;;2.90;;
15258;SDS011;34462;51.368;12.364;2022-07-25T00:45:50;5.47;;;2.90;;
15258;SDS011;34462;51.368;12.364;2022-07-25T00:48:18;3.50;;;3.20;;
15258;SDS011;34462;51.368;12.364;2022-07-25T00:50:48;3.42;;;3.13;;
15258;SDS011;34462;51.368;12.364;2022-07-25T00:53:16;4.65;;;3.60;;
15258;SDS011;34462;51.368;12.364;2022-07-25T00:55:45;4.00;;;3.70;;
15258;SDS011;34462;51.368;12.364;2022-07-25T00:58:13;4.00;;;3.60;;
15258;SDS011;34462;51.368;12.364;2022-07-25T01:00:44;3.95;;;3.65;;
15258;SDS011;34462;51.368;12.364;2022-07-25T01:03:12;4.60;;;4.20;;
15258;SDS011;34462;51.368;12.364;2022-07-25T01:05:42;4.97;;;4.20;;
15258;SDS011;34462;51.368;12.364;2022-07-25T01:08:20;4.43;;;4.03;;
15258;SDS011;34462;51.368;12.364;2022-07-25T01:10:48;4.93;;;4.40;;
15258;SDS011;34462;51.368;12.364;2022-07-25T01:13:16;4.45;;;3.90;;
15258;SDS011;34462;51.368;12.364;2022-07-25T01:15:46;4.05;;;3.65;;
15258;SDS011;34462;51.368;12.364;2022-07-25T01:18:14;4.82;;;4.43;;
15258;SDS011;34462;51.368;12.364;2022-07-25T01:20:43;4.35;;;3.95;;
15258;SDS011;34462;51.368;12.364;2022-07-25T01:23:12;4.55;;;3.38;;
15258;SDS011;34462;51.368;12.364;2022-07-25T01:25:40;4.65;;;3.60;;
15258;SDS011;34462;51.368;12.364;2022-07-25T01:28:08;3.95;;;3.55;;
15258;SDS011;34462;51.368;12.364;2022-07-25T01:30:36;3.85;;;3.50;;
15258;SDS011;34462;51.368;12.364;2022-07-25T01:33:05;4.15;;;3.83;;
15258;SDS011;34462;51.368;12.364;2022-07-25T01:35:33;4.15;;;3.78;;
15258;SDS011;34462;51.368;12.364;2022-07-25T01:38:09;5.47;;;3.55;;
15258;SDS011;34462;51.368;12.364;2022-07-25T01:40:39;3.83;;;3.42;;
15258;SDS011;34462;51.368;12.364;2022-07-25T01:43:08;4.25;;;3.85;;
15258;SDS011;34462;51.368;12.364;2022-07-25T01:45:37;5.15;;;4.00;;
15258;SDS011;34462;51.368;12.364;2022-07-25T01:48:05;4.88;;;3.85;;
15258;SDS011;34462;51.368;12.364;2022-07-25T01:50:34;4.30;;;3.90;;
15258;SDS011;34462;51.368;12.364;2022-07-25T01:53:02;4.03;;;3.72;;
15258;SDS011;34462;51.368;12.364;2022-07-25T01:55:32;4.65;;;3.45;;
15258;SDS011;34462;51.368;12.364;2022-07-25T01:58:00;3.95;;;3.65;;
15258;SDS011;34462;51.368;12.364;2022-07-25T02:00:28;4.45;;;4.05;;
15258;SDS011;34462;51.368;12.364;2022-07-25T02:02:56;4.78;;;4.03;;
15258;SDS011;34462;51.368;12.364;2022-07-25T02:05:53;4.65;;;4.03;;
15258;SDS011;34462;51.368;12.364;2022-07-25T02:08:21;4.00;;;3.70;;
15258;SDS011;34462;51.368;12.364;2022-07-25T02:10:51;4.65;;;4.25;;
15258;SDS011;34462;51.368;12.364;2022-07-25T02:13:19;4.80;;;3.97;;
15258;SDS011;34462;51.368;12.364;2022-07-25T02:15:47;4.65;;;4.25;;
15258;SDS011;34462;51.368;12.364;2022-07-25T02:18:16;4.50;;;4.10;;
15258;SDS011;34462;51.368;12.364;2022-07-25T02:20:44;4.57;;;4.18;;
15258;SDS011;34462;51.368;12.364;2022-07-25T02:23:12;5.32;;;4.38;;
15258;SDS011;34462;51.368;12.364;2022-07-25T02:25:40;4.82;;;4.35;;
15258;SDS011;34462;51.368;12.364;2022-07-25T02:28:10;4.80;;;4.32;;
15258;SDS011;34462;51.368;12.364;2022-07-25T02:30:38;6.25;;;4.40;;
15258;SDS011;34462;51.368;12.364;2022-07-25T02:33:07;5.18;;;4.75;;
15258;SDS011;34462;51.368;12.364;2022-07-25T02:35:35;4.80;;;4.38;;
15258;SDS011;34462;51.368;12.364;2022-07-25T02:38:03;4.90;;;4.50;;
15258;SDS011;34462;51.368;12.364;2022-07-25T02:40:31;5.03;;;4.53;;
15258;SDS011;34462;51.368;12.364;2022-07-25T02:42:59;5.15;;;4.75;;
15258;SDS011;34462;51.368;12.364;2022-07-25T02:45:29;5.43;;;4.65;;
15258;SDS011;34462;51.368;12.364;2022-07-25T02:47:59;4.85;;;4.45;;
15258;SDS011;34462;51.368;12.364;2022-07-25T02:50:27;4.47;;;4.03;;
15258;SDS011;34462;51.368;12.364;2022-07-25T02:52:55;5.28;;;4.22;;
15258;SDS011;34462;51.368;12.364;2022-07-25T02:55:23;5.30;;;4.80;;
15258;SDS011;34462;51.368;12.364;2022-07-25T02:57:51;5.45;;;4.95;;
15258;SDS011;34462;51.368;12.364;2022-07-25T03:00:20;5.50;;;4.90;;
15258;SDS011;34462;51.368;12.364;2022-07-25T03:02:50;5.82;;;5.07;;
15258;SDS011;34462;51.368;12.364;2022-07-25T03:05:18;5.57;;;5.00;;
15258;SDS011;34462;51.368;12.364;2022-07-25T03:07:46;5.90;;;5.03;;
15258;SDS011;34462;51.368;12.364;2022-07-25T03:10:14;5.35;;;4.85;;
15258;SDS011;34462;51.368;12.364;2022-07-25T03:12:43;5.10;;;4.70;;
15258;SDS011;34462;51.368;12.364;2022-07-25T03:15:12;6.22;;;5.30;;
15258;SDS011;34462;51.368;12.364;2022-07-25T03:17:40;6.75;;;5.25;;
15258;SDS011;34462;51.368;12.364;2022-07-25T03:20:10;6.38;;;5.28;;
15258;SDS011;34462;51.368;12.364;2022-07-25T03:22:39;5.57;;;5.07;;
15258;SDS011;34462;51.368;12.364;2022-07-25T03:25:07;5.28;;;4.85;;
15258;SDS011;34462;51.368;12.364;2022-07-25T03:27:46;5.18;;;4.78;;
15258;SDS011;34462;51.368;12.364;2022-07-25T03:30:15;5.80;;;5.30;;
15258;SDS011;34462;51.368;12.364;2022-07-25T03:32:44;5.70;;;5.20;;
15258;SDS011;34462;51.368;12.364;2022-07-25T03:35:14;5.30;;;4.90;;
15258;SDS011;34462;51.368;12.364;2022-07-25T03:37:42;5.60;;;5.10;;
15258;SDS011;34462;51.368;12.364;2022-07-25T03:40:11;5.40;;;5.00;;
15258;SDS011;34462;51.368;12.364;2022-07-25T03:42:41;6.10;;;5.05;;
15258;SDS011;34462;51.368;12.364;2022-07-25T03:45:09;6.55;;;5.13;;
15258;SDS011;34462;51.368;12.364;2022-07-25T03:47:37;5.63;;;5.13;;
15258;SDS011;34462;51.368;12.364;2022-07-25T03:50:06;5.93;;;5.43;;
15258;SDS011;34462;51.368;12.364;2022-07-25T03:52:36;4.90;;;4.50;;
15258;SDS011;34462;51.368;12.364;2022-07-25T03:55:05;6.53;;;5.30;;
15258;SDS011;34462;51.368;12.364;2022-07-25T03:57:34;6.03;;;5.43;;
15258;SDS011;34462;51.368;12.364;2022-07-25T04:00:03;6.25;;;5.57;;
15258;SDS011;34462;51.368;12.364;2022-07-25T04:02:34;6.35;;;5.75;;
15258;SDS011;34462;51.368;12.364;2022-07-25T04:05:04;6.05;;;5.55;;
15258;SDS011;34462;51.368;12.364;2022-07-25T04:07:34;5.95;;;5.45;;
15258;SDS011;34462;51.368;12.364;2022-07-25T04:10:05;6.07;;;5.47;;
15258;SDS011;34462;51.368;12.364;2022-07-25T04:12:35;6.22;;;5.63;;
15258;SDS011;34462;51.368;12.364;2022-07-25T04:15:04;7.68;;;6.07;;
15258;SDS011;34462;51.368;12.364;2022-07-25T04:17:33;5.80;;;5.30;;
15258;SDS011;34462;51.368;12.364;2022-07-25T04:20:05;5.68;;;5.18;;
15258;SDS011;34462;51.368;12.364;2022-07-25T04:22:34;6.70;;;6.03;;
15258;SDS011;34462;51.368;12.364;2022-07-25T04:25:04;6.28;;;5.68;;
15258;SDS011;34462;51.368;12.364;2022-07-25T04:27:33;7.07;;;5.70;;
15258;SDS011;34462;51.368;12.364;2022-07-25T04:30:00;6.20;;;5.65;;
15258;SDS011;34462;51.368;12.364;2022-07-25T04:32:29;6.88;;;6.18;;
15258;SDS011;34462;51.368;12.364;2022-07-25T04:34:57;5.90;;;5.40;;
15258;SDS011;34462;51.368;12.364;2022-07-25T04:37:25;6.15;;;5.55;;
15258;SDS011;34462;51.368;12.364;2022-07-25T04:39:53;6.38;;;5.50;;
15258;SDS011;34462;51.368;12.364;2022-07-25T04:42:22;7.18;;;6.47;;
15258;SDS011;34462;51.368;12.364;2022-07-25T04:44:50;6.22;;;5.70;;
15258;SDS011;34462;51.368;12.364;2022-07-25T04:47:18;6.28;;;5.68;;
15258;SDS011;34462;51.368;12.364;2022-07-25T04:49:46;7.18;;;6.28;;
15258;SDS011;34462;51.368;12.364;2022-07-25T04:52:14;6.70;;;6.10;;
15258;SDS011;34462;51.368;12.364;2022-07-25T04:54:42;7.93;;;6.43;;
15258;SDS011;34462;51.368;12.364;2022-07-25T04:57:10;6.63;;;6.03;;
15258;SDS011;34462;51.368;12.364;2022-07-25T04:59:39;6.93;;;6.32;;
15258;SDS011;34462;51.368;12.364;2022-07-25T05:02:09;6.25;;;5.65;;
15258;SDS011;34462;51.368;12.364;2022-07-25T05:04:37;7.13;;;6.47;;
15258;SDS011;34462;51.368;12.364;2022-07-25T05:07:10;7.18;;;6.57;;
15258;SDS011;34462;51.368;12.364;2022-07-25T05:09:38;6.88;;;6.28;;
15258;SDS011;34462;51.368;12.364;2022-07-25T05:12:07;6.85;;;6.15;;
15258;SDS011;34462;51.368;12.364;2022-07-25T05:14:35;7.60;;;6.10;;
15258;SDS011;34462;51.368;12.364;2022-07-25T05:17:05;7.07;;;6.43;;
15258;SDS011;34462;51.368;12.364;2022-07-25T05:19:33;7.22;;;6.63;;
15258;SDS011;34462;51.368;12.364;2022-07-25T05:22:01;6.97;;;6.13;;
15258;SDS011;34462;51.368;12.364;2022-07-25T05:24:31;6.97;;;6.38;;
15258;SDS011;34462;51.368;12.364;2022-07-25T05:27:00;7.63;;;6.90;;
15258;SDS011;34462;51.368;12.364;2022-07-25T05:29:29;7.85;;;6.85;;
15258;SDS011;34462;51.368;12.364;2022-07-25T05:31:58;8.10;;;6.97;;
15258;SDS011;34462;51.368;12.364;2022-07-25T05:34:27;7.63;;;6.72;;
15258;SDS011;34462;51.368;12.364;2022-07-25T05:36:55;7.45;;;6.78;;
15258;SDS011;34462;51.368;12.364;2022-07-25T05:39:23;8.10;;;7.47;;
15258;SDS011;34462;51.368;12.364;2022-07-25T05:41:51;8.50;;;7.70;;
15258;SDS011;34462;51.368;12.364;2022-07-25T05:44:19;8.18;;;7.47;;
15258;SDS011;34462;51.368;12.364;2022-07-25T05:46:47;7.88;;;7.13;;
15258;SDS011;34462;51.368;12.364;2022-07-25T05:49:15;8.13;;;7.35;;
15258;SDS011;34462;51.368;12.364;2022-07-25T05:51:45;8.30;;;7.65;;
15258;SDS011;34462;51.368;12.364;2022-07-25T05:54:13;8.70;;;7.95;;
15258;SDS011;34462;51.368;12.364;2022-07-25T05:56:41;8.10;;;7.40;;
15258;SDS011;34462;51.368;12.364;2022-07-25T05:59:09;8.20;;;7.50;;
15258;SDS011;34462;51.368;12.364;2022-07-25T06:01:37;7.90;;;7.22;;
15258;SDS011;34462;51.368;12.364;2022-07-25T06:04:05;8.57;;;7.78;;
15258;SDS011;34462;51.368;12.364;2022-07-25T06:06:34;21.50;;;9.55;;
15258;SDS011;34462;51.368;12.364;2022-07-25T06:09:03;9.80;;;8.60;;
15258;SDS011;34462;51.368;12.364;2022-07-25T06:11:33;14.95;;;8.43;;
15258;SDS011;34462;51.368;12.364;2022-07-25T06:14:16;10.07;;;8.20;;
15258;SDS011;34462;51.368;12.364;2022-07-25T06:16:44;9.88;;;8.27;;
15258;SDS011;34462;51.368;12.364;2022-07-25T06:19:13;8.88;;;8.10;;
15258;SDS011;34462;51.368;12.364;2022-07-25T06:21:41;8.38;;;7.57;;
15258;SDS011;34462;51.368;12.364;2022-07-25T06:24:10;7.93;;;7.13;;
15258;SDS011;34462;51.368;12.364;2022-07-25T06:26:38;9.20;;;8.35;;
15258;SDS011;34462;51.368;12.364;2022-07-25T06:29:06;7.80;;;7.15;;
15258;SDS011;34462;51.368;12.364;2022-07-25T06:31:34;8.25;;;7.55;;
15258;SDS011;34462;51.368;12.364;2022-07-25T06:34:03;8.60;;;7.85;;
15258;SDS011;34462;51.368;12.364;2022-07-25T06:36:31;11.63;;;8.35;;
15258;SDS011;34462;51.368;12.364;2022-07-25T06:38:59;9.95;;;8.32;;
15258;SDS011;34462;51.368;12.364;2022-07-25T06:41:29;9.63;;;8.02;;
15258;SDS011;34462;51.368;12.364;2022-07-25T06:43:57;8.90;;;8.10;;
15258;SDS011;34462;51.368;12.364;2022-07-25T06:46:25;12.98;;;8.30;;
15258;SDS011;34462;51.368;12.364;2022-07-25T06:48:56;32.53;;;11.27;;
15258;SDS011;34462;51.368;12.364;2022-07-25T06:51:24;13.70;;;8.60;;
15258;SDS011;34462;51.368;12.364;2022-07-25T06:53:52;8.68;;;7.85;;
15258;SDS011;34462;51.368;12.364;2022-07-25T06:56:21;90.45;;;18.02;;
15258;SDS011;34462;51.368;12.364;2022-07-25T06:58:51;21.85;;;10.35;;
15258;SDS011;34462;51.368;12.364;2022-07-25T07:01:19;8.40;;;7.70;;
15258;SDS011;34462;51.368;12.364;2022-07-25T07:03:47;8.80;;;7.93;;
15258;SDS011;34462;51.368;12.364;2022-07-25T07:06:16;9.68;;;7.55;;
15258;SDS011;34462;51.368;12.364;2022-07-25T07:08:44;9.07;;;7.90;;
15258;SDS011;34462;51.368;12.364;2022-07-25T07:11:12;9.73;;;7.90;;
15258;SDS011;34462;51.368;12.364;2022-07-25T07:13:41;8.77;;;7.97;;
15258;SDS011;34462;51.368;12.364;2022-07-25T07:16:11;9.20;;;8.35;;
15258;SDS011;34462;51.368;12.364;2022-07-25T07:18:39;31.02;;;11.27;;
15258;SDS011;34462;51.368;12.364;2022-07-25T07:21:14;10.23;;;8.63;;
15258;SDS011;34462;51.368;12.364;2022-07-25T07:23:46;11.38;;;8.45;;
15258;SDS011;34462;51.368;12.364;2022-07-25T07:26:19;13.40;;;8.98;;
15258;SDS011;34462;51.368;12.364;2022-07-25T07:28:47;13.68;;;8.50;;
15258;SDS011;34462;51.368;12.364;2022-07-25T07:31:17;18.52;;;9.40;;
15258;SDS011;34462;51.368;12.364;2022-07-25T07:33:45;27.13;;;11.15;;
15258;SDS011;34462;51.368;12.364;2022-07-25T07:36:13;47.75;;;14.23;;
15258;SDS011;34462;51.368;12.364;2022-07-25T07:38:41;11.13;;;8.35;;
15258;SDS011;34462;51.368;12.364;2022-07-25T07:41:10;8.98;;;8.07;;
15258;SDS011;34462;51.368;12.364;2022-07-25T07:43:38;10.43;;;8.82;;
15258;SDS011;34462;51.368;12.364;2022-07-25T07:46:07;12.63;;;8.75;;
15258;SDS011;34462;51.368;12.364;2022-07-25T07:48:36;19.00;;;8.95;;
15258;SDS011;34462;51.368;12.364;2022-07-25T07:51:05;9.48;;;8.05;;
15258;SDS011;34462;51.368;12.364;2022-07-25T07:53:33;26.95;;;10.65;;
15258;SDS011;34462;51.368;12.364;2022-07-25T07:56:18;50.45;;;13.65;;
15258;SDS011;34462;51.368;12.364;2022-07-25T07:58:46;9.80;;;8.48;;
15258;SDS011;34462;51.368;12.364;2022-07-25T08:01:15;44.50;;;12.02;;
15258;SDS011;34462;51.368;12.364;2022-07-25T08:03:45;9.27;;;8.38;;
15258;SDS011;34462;51.368;12.364;2022-07-25T08:06:13;18.10;;;8.70;;
15258;SDS011;34462;51.368;12.364;2022-07-25T08:08:41;14.35;;;9.10;;
15258;SDS011;34462;51.368;12.364;2022-07-25T08:11:10;14.55;;;8.73;;
15258;SDS011;34462;51.368;12.364;2022-07-25T08:13:38;9.00;;;8.20;;
15258;SDS011;34462;51.368;12.364;2022-07-25T08:16:06;9.30;;;8.30;;
15258;SDS011;34462;51.368;12.364;2022-07-25T08:18:36;9.07;;;8.15;;
15258;SDS011;34462;51.368;12.364;2022-07-25T08:21:06;20.23;;;9.27;;
15258;SDS011;34462;51.368;12.364;2022-07-25T08:23:34;14.60;;;9.52;;
15258;SDS011;34462;51.368;12.364;2022-07-25T08:26:04;9.13;;;8.32;;
15258;SDS011;34462;51.368;12.364;2022-07-25T08:28:33;8.23;;;7.57;;
15258;SDS011;34462;51.368;12.364;2022-07-25T08:31:01;8.93;;;8.10;;
15258;SDS011;34462;51.368;12.364;2022-07-25T08:33:29;8.82;;;7.97;;
15258;SDS011;34462;51.368;12.364;2022-07-25T08:35:57;10.23;;;8.07;;
15258;SDS011;34462;51.368;12.364;2022-07-25T08:38:27;8.98;;;8.27;;
15258;SDS011;34462;51.368;12.364;2022-07-25T08:40:56;9.02;;;8.23;;
15258;SDS011;34462;51.368;12.364;2022-07-25T08:43:25;8.48;;;7.78;;
15258;SDS011;34462;51.368;12.364;2022-07-25T08:45:54;8.35;;;7.63;;
15258;SDS011;34462;51.368;12.364;2022-07-25T08:48:23;9.13;;;8.32;;
15258;SDS011;34462;51.368;12.364;2022-07-25T08:50:53;9.50;;;8.02;;
15258;SDS011;34462;51.368;12.364;2022-07-25T08:53:23;8.98;;;8.10;;
15258;SDS011;34462;51.368;12.364;2022-07-25T08:55:59;8.68;;;7.97;;
15258;SDS011;34462;51.368;12.364;2022-07-25T08:58:38;8.27;;;7.57;;
15258;SDS011;34462;51.368;12.364;2022-07-25T09:01:09;8.55;;;7.75;;
15258;SDS011;34462;51.368;12.364;2022-07-25T09:03:37;8.82;;;7.97;;
15258;SDS011;34462;51.368;12.364;2022-07-25T09:06:12;8.32;;;7.53;;
15258;SDS011;34462;51.368;12.364;2022-07-25T09:08:49;8.43;;;7.72;;
15258;SDS011;34462;51.368;12.364;2022-07-25T09:11:31;8.48;;;7.70;;
15258;SDS011;34462;51.368;12.364;2022-07-25T09:14:02;9.38;;;8.52;;
15258;SDS011;34462;51.368;12.364;2022-07-25T09:16:35;8.90;;;7.97;;
15258;SDS011;34462;51.368;12.364;2022-07-25T09:19:09;11.77;;;8.27;;
15258;SDS011;34462;51.368;12.364;2022-07-25T09:21:41;8.63;;;7.80;;
15258;SDS011;34462;51.368;12.364;2022-07-25T09:24:12;8.52;;;7.80;;
15258;SDS011;34462;51.368;12.364;2022-07-25T09:26:45;13.93;;;8.35;;
15258;SDS011;34462;51.368;12.364;2022-07-25T09:29:19;52.15;;;14.27;;
15258;SDS011;34462;51.368;12.364;2022-07-25T09:31:50;8.02;;;7.43;;
15258;SDS011;34462;51.368;12.364;2022-07-25T09:34:32;40.35;;;12.70;;
15258;SDS011;34462;51.368;12.364;2022-07-25T09:37:04;8.25;;;7.45;;
15258;SDS011;34462;51.368;12.364;2022-07-25T09:39:35;8.60;;;7.80;;
15258;SDS011;34462;51.368;12.364;2022-07-25T09:42:20;8.23;;;7.53;;
15258;SDS011;34462;51.368;12.364;2022-07-25T09:47:51;8.05;;;7.35;;
15258;SDS011;34462;51.368;12.364;2022-07-25T09:50:22;8.38;;;7.10;;
15258;SDS011;34462;51.368;12.364;2022-07-25T09:52:52;13.50;;;7.95;;
15258;SDS011;34462;51.368;12.364;2022-07-25T09:55:29;7.80;;;7.20;;
15258;SDS011;34462;51.368;12.364;2022-07-25T09:57:59;8.10;;;7.50;;
15258;SDS011;34462;51.368;12.364;2022-07-25T10:00:27;8.38;;;7.78;;
15258;SDS011;34462;51.368;12.364;2022-07-25T10:03:00;7.63;;;6.93;;
15258;SDS011;34462;51.368;12.364;2022-07-25T10:05:49;8.25;;;7.25;;
15258;SDS011;34462;51.368;12.364;2022-07-25T10:08:34;7.55;;;7.00;;
15258;SDS011;34462;51.368;12.364;2022-07-25T10:11:16;23.13;;;9.68;;
15258;SDS011;34462;51.368;12.364;2022-07-25T10:13:47;8.30;;;7.45;;
15258;SDS011;34462;51.368;12.364;2022-07-25T10:16:17;8.30;;;7.50;;
15258;SDS011;34462;51.368;12.364;2022-07-25T10:18:48;7.65;;;7.05;;
15258;SDS011;34462;51.368;12.364;2022-07-25T10:21:19;7.60;;;6.80;;
15258;SDS011;34462;51.368;12.364;2022-07-25T10:23:56;7.47;;;6.88;;
15258;SDS011;34462;51.368;12.364;2022-07-25T10:26:27;7.43;;;6.72;;
15258;SDS011;34462;51.368;12.364;2022-07-25T10:28:58;7.60;;;6.90;;
15258;SDS011;34462;51.368;12.364;2022-07-25T10:31:33;7.95;;;7.35;;
15258;SDS011;34462;51.368;12.364;2022-07-25T10:34:04;7.70;;;7.10;;
15258;SDS011;34462;51.368;12.364;2022-07-25T10:36:41;10.25;;;7.07;;
15258;SDS011;34462;51.368;12.364;2022-07-25T10:39:12;7.25;;;6.65;;
15258;SDS011;34462;51.368;12.364;2022-07-25T10:41:43;8.48;;;7.78;;
15258;SDS011;34462;51.368;12.364;2022-07-25T10:44:19;8.35;;;7.50;;
15258;SDS011;34462;51.368;12.364;2022-07-25T10:46:47;7.88;;;7.25;;
15258;SDS011;34462;51.368;12.364;2022-07-25T10:49:16;7.63;;;7.03;;
15258;SDS011;34462;51.368;12.364;2022-07-25T10:51:57;7.35;;;6.85;;
15258;SDS011;34462;51.368;12.364;2022-07-25T10:54:31;7.90;;;7.30;;
15258;SDS011;34462;51.368;12.364;2022-07-25T10:57:02;8.15;;;7.43;;
15258;SDS011;34462;51.368;12.364;2022-07-25T10:59:34;7.28;;;6.78;;
15258;SDS011;34462;51.368;12.364;2022-07-25T11:02:05;7.50;;;6.90;;
15258;SDS011;34462;51.368;12.364;2022-07-25T11:04:41;7.55;;;6.68;;
15258;SDS011;34462;51.368;12.364;2022-07-25T11:07:11;8.38;;;7.68;;
15258;SDS011;34462;51.368;12.364;2022-07-25T11:09:43;7.63;;;7.00;;
15258;SDS011;34462;51.368;12.364;2022-07-25T11:12:21;7.75;;;7.07;;
15258;SDS011;34462;51.368;12.364;2022-07-25T11:14:54;7.47;;;6.88;;
15258;SDS011;34462;51.368;12.364;2022-07-25T11:17:27;7.50;;;6.90;;
15258;SDS011;34462;51.368;12.364;2022-07-25T11:19:56;7.03;;;6.40;;
15258;SDS011;34462;51.368;12.364;2022-07-25T11:22:26;7.60;;;6.90;;
15258;SDS011;34462;51.368;12.364;2022-07-25T11:24:57;7.78;;;7.05;;
15258;SDS011;34462;51.368;12.364;2022-07-25T11:27:27;7.28;;;6.68;;
15258;SDS011;34462;51.368;12.364;2022-07-25T11:30:05;7.97;;;7.28;;
15258;SDS011;34462;51.368;12.364;2022-07-25T11:32:38;8.20;;;7.07;;
15258;SDS011;34462;51.368;12.364;2022-07-25T11:35:09;10.38;;;6.97;;
15258;SDS011;34462;51.368;12.364;2022-07-25T11:37:38;7.63;;;7.03;;
15258;SDS011;34462;51.368;12.364;2022-07-25T11:40:09;7.55;;;6.50;;
15258;SDS011;34462;51.368;12.364;2022-07-25T11:42:41;7.78;;;6.95;;
15258;SDS011;34462;51.368;12.364;2022-07-25T11:45:17;7.55;;;6.85;;
15258;SDS011;34462;51.368;12.364;2022-07-25T11:47:47;7.55;;;6.85;;
15258;SDS011;34462;51.368;12.364;2022-07-25T11:50:28;8.10;;;7.30;;
15258;SDS011;34462;51.368;12.364;2022-07-25T11:52:58;7.97;;;7.38;;
15258;SDS011;34462;51.368;12.364;2022-07-25T11:55:28;8.18;;;7.38;;
15258;SDS011;34462;51.368;12.364;2022-07-25T11:58:02;8.15;;;7.50;;
15258;SDS011;34462;51.368;12.364;2022-07-25T12:00:34;7.93;;;7.32;;
15258;SDS011;34462;51.368;12.364;2022-07-25T12:03:10;8.15;;;7.53;;
15258;SDS011;34462;51.368;12.364;2022-07-25T12:05:45;7.40;;;6.80;;
15258;SDS011;34462;51.368;12.364;2022-07-25T12:08:15;7.10;;;6.60;;
15258;SDS011;34462;51.368;12.364;2022-07-25T12:10:46;7.10;;;6.60;;
15258;SDS011;34462;51.368;12.364;2022-07-25T12:13:20;7.60;;;6.93;;
15258;SDS011;34462;51.368;12.364;2022-07-25T12:15:51;7.45;;;6.85;;
15258;SDS011;34462;51.368;12.364;2022-07-25T12:18:20;7.63;;;6.90;;
15258;SDS011;34462;51.368;12.364;2022-07-25T12:20:48;8.48;;;7.45;;
15258;SDS011;34462;51.368;12.364;2022-07-25T12:23:16;7.75;;;7.07;;
15258;SDS011;34462;51.368;12.364;2022-07-25T12:25:46;7.78;;;7.03;;
15258;SDS011;34462;51.368;12.364;2022-07-25T12:28:15;7.95;;;7.22;;
15258;SDS011;34462;51.368;12.364;2022-07-25T12:30:44;7.57;;;6.85;;
15258;SDS011;34462;51.368;12.364;2022-07-25T12:33:22;8.68;;;7.88;;
15258;SDS011;34462;51.368;12.364;2022-07-25T12:35:51;7.60;;;7.00;;
15258;SDS011;34462;51.368;12.364;2022-07-25T12:38:19;7.63;;;7.00;;
15258;SDS011;34462;51.368;12.364;2022-07-25T12:40:47;8.45;;;7.75;;
15258;SDS011;34462;51.368;12.364;2022-07-25T12:43:15;8.68;;;7.88;;
15258;SDS011;34462;51.368;12.364;2022-07-25T12:45:44;8.13;;;7.43;;
15258;SDS011;34462;51.368;12.364;2022-07-25T12:48:12;8.13;;;7.43;;
15258;SDS011;34462;51.368;12.364;2022-07-25T12:50:43;7.70;;;7.10;;
15258;SDS011;34462;51.368;12.364;2022-07-25T12:53:11;8.27;;;7.50;;
15258;SDS011;34462;51.368;12.364;2022-07-25T12:55:39;7.38;;;6.78;;
15258;SDS011;34462;51.368;12.364;2022-07-25T12:58:07;7.43;;;6.82;;
15258;SDS011;34462;51.368;12.364;2022-07-25T13:00:36;8.32;;;7.57;;
15258;SDS011;34462;51.368;12.364;2022-07-25T13:03:04;8.07;;;6.88;;
15258;SDS011;34462;51.368;12.364;2022-07-25T13:05:32;7.80;;;7.10;;
15258;SDS011;34462;51.368;12.364;2022-07-25T13:08:03;7.00;;;6.40;;
15258;SDS011;34462;51.368;12.364;2022-07-25T13:10:32;7.55;;;6.70;;
15258;SDS011;34462;51.368;12.364;2022-07-25T13:13:00;6.80;;;6.30;;
15258;SDS011;34462;51.368;12.364;2022-07-25T13:15:28;7.07;;;6.47;;
15258;SDS011;34462;51.368;12.364;2022-07-25T13:17:56;6.95;;;6.30;;
15258;SDS011;34462;51.368;12.364;2022-07-25T13:20:24;7.25;;;6.60;;
15258;SDS011;34462;51.368;12.364;2022-07-25T13:22:53;8.77;;;6.53;;
15258;SDS011;34462;51.368;12.364;2022-07-25T13:25:23;7.18;;;6.57;;
15258;SDS011;34462;51.368;12.364;2022-07-25T13:27:51;8.10;;;6.90;;
15258;SDS011;34462;51.368;12.364;2022-07-25T13:30:19;7.38;;;6.78;;
15258;SDS011;34462;51.368;12.364;2022-07-25T13:32:47;6.47;;;6.07;;
15258;SDS011;34462;51.368;12.364;2022-07-25T13:35:15;7.22;;;6.63;;
15258;SDS011;34462;51.368;12.364;2022-07-25T13:37:46;8.18;;;6.43;;
15258;SDS011;34462;51.368;12.364;2022-07-25T13:40:14;7.07;;;6.57;;
15258;SDS011;34462;51.368;12.364;2022-07-25T13:42:44;7.03;;;6.53;;
15258;SDS011;34462;51.368;12.364;2022-07-25T13:45:13;6.88;;;6.32;;
15258;SDS011;34462;51.368;12.364;2022-07-25T13:47:41;7.00;;;6.43;;
15258;SDS011;34462;51.368;12.364;2022-07-25T13:50:09;6.63;;;6.13;;
15258;SDS011;34462;51.368;12.364;2022-07-25T13:52:37;7.38;;;6.68;;
15258;SDS011;34462;51.368;12.364;2022-07-25T13:55:06;7.10;;;6.50;;
15258;SDS011;34462;51.368;12.364;2022-07-25T13:57:35;7.28;;;6.68;;
15258;SDS011;34462;51.368;12.364;2022-07-25T14:00:05;7.00;;;6.40;;
15258;SDS011;34462;51.368;12.364;2022-07-25T14:02:35;6.78;;;6.15;;
15258;SDS011;34462;51.368;12.364;2022-07-25T14:05:03;6.65;;;6.05;;
15258;SDS011;34462;51.368;12.364;2022-07-25T14:07:32;6.97;;;6.38;;
15258;SDS011;34462;51.368;12.364;2022-07-25T14:10:02;6.75;;;5.93;;
15258;SDS011;34462;51.368;12.364;2022-07-25T14:12:33;6.30;;;5.80;;
15258;SDS011;34462;51.368;12.364;2022-07-25T14:15:06;7.22;;;6.43;;
15258;SDS011;34462;51.368;12.364;2022-07-25T14:17:35;7.03;;;6.43;;
15258;SDS011;34462;51.368;12.364;2022-07-25T14:20:04;7.35;;;6.35;;
15258;SDS011;34462;51.368;12.364;2022-07-25T14:22:34;6.78;;;6.28;;
15258;SDS011;34462;51.368;12.364;2022-07-25T14:25:03;7.10;;;6.50;;
15258;SDS011;34462;51.368;12.364;2022-07-25T14:27:32;6.82;;;6.32;;
15258;SDS011;34462;51.368;12.364;2022-07-25T14:30:01;7.20;;;6.60;;
15258;SDS011;34462;51.368;12.364;2022-07-25T14:32:31;7.30;;;6.63;;
15258;SDS011;34462;51.368;12.364;2022-07-25T14:34:59;6.88;;;6.38;;
15258;SDS011;34462;51.368;12.364;2022-07-25T14:37:28;7.03;;;6.43;;
15258;SDS011;34462;51.368;12.364;2022-07-25T14:39:56;7.20;;;6.50;;
15258;SDS011;34462;51.368;12.364;2022-07-25T14:42:25;7.20;;;6.60;;
15258;SDS011;34462;51.368;12.364;2022-07-25T14:44:53;6.95;;;6.35;;
15258;SDS011;34462;51.368;12.364;2022-07-25T14:47:21;7.05;;;6.47;;
15258;SDS011;34462;51.368;12.364;2022-07-25T14:49:53;7.20;;;6.50;;
15258;SDS011;34462;51.368;12.364;2022-07-25T14:52:21;7.00;;;6.38;;